YHS weather

Public forecast

Using degrees Celsius for public forecast. Weather courtesy of forecast.io.

Closest aviation weather report (METAR) to Sechelt-Gibsons Airport

Closest report is Nanaimo Airport, 25.1 nm (46.4 km) SSW. Retrieved 2020/08/14 22:00 UTC (50 minutes ago):

CYCD 142200Z 15005KT 080V170 25SM FEW220 24/12 A3020 RMK CI2 SLP227 DENSITY ALT 900FT

Closest aviation forecast (TAF) to Sechelt-Gibsons Airport

Closest forecast is Nanaimo Airport, 25.1 nm (46.4 km) SSW. Retrieved 2020/08/14 18:00 UTC (5 hours ago):

TAF CYCD 141738Z 1418/1504 04005KT P6SM FEW200 BECMG 1418/1420 08006KT RMK NXT FCST BY 150000Z